sensor_id;sensor_type;location;lat;lon;timestamp;P1;durP1;ratioP1;P2;durP2;ratioP2
43998;SDS011;51319;52.162;5.302;2023-02-28T00:00:37;13.45;;;6.18;;
43998;SDS011;51319;52.162;5.302;2023-02-28T00:03:05;15.57;;;6.78;;
43998;SDS011;51319;52.162;5.302;2023-02-28T00:05:32;17.88;;;6.68;;
43998;SDS011;51319;52.162;5.302;2023-02-28T00:07:59;15.18;;;7.40;;
43998;SDS011;51319;52.162;5.302;2023-02-28T00:10:27;15.45;;;7.22;;
43998;SDS011;51319;52.162;5.302;2023-02-28T00:12:56;16.83;;;6.47;;
43998;SDS011;51319;52.162;5.302;2023-02-28T00:15:26;10.82;;;5.72;;
43998;SDS011;51319;52.162;5.302;2023-02-28T00:17:53;14.50;;;5.82;;
43998;SDS011;51319;52.162;5.302;2023-02-28T00:20:20;12.05;;;5.78;;
43998;SDS011;51319;52.162;5.302;2023-02-28T00:22:48;16.20;;;6.38;;
43998;SDS011;51319;52.162;5.302;2023-02-28T00:25:18;12.70;;;4.45;;
43998;SDS011;51319;52.162;5.302;2023-02-28T00:27:47;12.40;;;5.13;;
43998;SDS011;51319;52.162;5.302;2023-02-28T00:30:16;8.95;;;4.25;;
43998;SDS011;51319;52.162;5.302;2023-02-28T00:32:47;10.57;;;4.53;;
43998;SDS011;51319;52.162;5.302;2023-02-28T00:35:15;8.65;;;4.20;;
43998;SDS011;51319;52.162;5.302;2023-02-28T00:37:42;9.25;;;3.58;;
43998;SDS011;51319;52.162;5.302;2023-02-28T00:40:09;12.30;;;4.93;;
43998;SDS011;51319;52.162;5.302;2023-02-28T00:42:38;11.23;;;5.25;;
43998;SDS011;51319;52.162;5.302;2023-02-28T00:45:06;9.48;;;5.50;;
43998;SDS011;51319;52.162;5.302;2023-02-28T00:47:34;11.68;;;5.93;;
43998;SDS011;51319;52.162;5.302;2023-02-28T00:50:02;13.63;;;6.25;;
43998;SDS011;51319;52.162;5.302;2023-02-28T00:52:29;12.70;;;5.85;;
43998;SDS011;51319;52.162;5.302;2023-02-28T00:54:56;10.60;;;5.60;;
43998;SDS011;51319;52.162;5.302;2023-02-28T00:57:23;10.32;;;5.38;;
43998;SDS011;51319;52.162;5.302;2023-02-28T00:59:50;9.90;;;5.00;;
43998;SDS011;51319;52.162;5.302;2023-02-28T01:02:16;13.57;;;5.32;;
43998;SDS011;51319;52.162;5.302;2023-02-28T01:04:44;11.45;;;5.30;;
43998;SDS011;51319;52.162;5.302;2023-02-28T01:07:11;8.95;;;4.30;;
43998;SDS011;51319;52.162;5.302;2023-02-28T01:09:38;10.50;;;4.85;;
43998;SDS011;51319;52.162;5.302;2023-02-28T01:12:14;9.75;;;4.85;;
43998;SDS011;51319;52.162;5.302;2023-02-28T01:14:41;9.57;;;5.15;;
43998;SDS011;51319;52.162;5.302;2023-02-28T01:17:08;13.23;;;5.82;;
43998;SDS011;51319;52.162;5.302;2023-02-28T01:19:35;13.82;;;6.65;;
43998;SDS011;51319;52.162;5.302;2023-02-28T01:22:03;9.18;;;5.57;;
43998;SDS011;51319;52.162;5.302;2023-02-28T01:24:31;6.47;;;4.55;;
43998;SDS011;51319;52.162;5.302;2023-02-28T01:26:59;11.48;;;5.68;;
43998;SDS011;51319;52.162;5.302;2023-02-28T01:29:26;9.65;;;4.82;;
43998;SDS011;51319;52.162;5.302;2023-02-28T01:31:53;12.00;;;5.07;;
43998;SDS011;51319;52.162;5.302;2023-02-28T01:34:20;9.98;;;4.72;;
43998;SDS011;51319;52.162;5.302;2023-02-28T01:36:47;12.95;;;5.88;;
43998;SDS011;51319;52.162;5.302;2023-02-28T01:39:13;9.95;;;5.15;;
43998;SDS011;51319;52.162;5.302;2023-02-28T01:41:40;7.28;;;4.65;;
43998;SDS011;51319;52.162;5.302;2023-02-28T01:44:54;7.63;;;4.30;;
43998;SDS011;51319;52.162;5.302;2023-02-28T01:47:13;8.80;;;4.60;;
43998;SDS011;51319;52.162;5.302;2023-02-28T01:49:40;9.70;;;4.22;;
43998;SDS011;51319;52.162;5.302;2023-02-28T01:52:08;8.77;;;4.65;;
43998;SDS011;51319;52.162;5.302;2023-02-28T01:54:41;9.52;;;4.30;;
43998;SDS011;51319;52.162;5.302;2023-02-28T01:57:09;6.97;;;3.90;;
43998;SDS011;51319;52.162;5.302;2023-02-28T02:02:17;8.60;;;3.85;;
43998;SDS011;51319;52.162;5.302;2023-02-28T02:04:50;6.60;;;3.65;;
43998;SDS011;51319;52.162;5.302;2023-02-28T02:07:31;6.68;;;4.18;;
43998;SDS011;51319;52.162;5.302;2023-02-28T02:15:16;8.38;;;3.70;;
43998;SDS011;51319;52.162;5.302;2023-02-28T02:18:10;6.32;;;3.63;;
43998;SDS011;51319;52.162;5.302;2023-02-28T02:23:51;6.57;;;3.97;;
43998;SDS011;51319;52.162;5.302;2023-02-28T02:37:58;6.80;;;3.30;;
43998;SDS011;51319;52.162;5.302;2023-02-28T02:40:37;11.77;;;3.40;;
43998;SDS011;51319;52.162;5.302;2023-02-28T02:45:40;8.60;;;2.85;;
43998;SDS011;51319;52.162;5.302;2023-02-28T02:48:23;9.88;;;3.58;;
43998;SDS011;51319;52.162;5.302;2023-02-28T02:50:54;8.20;;;3.10;;
43998;SDS011;51319;52.162;5.302;2023-02-28T02:53:34;8.15;;;3.05;;
43998;SDS011;51319;52.162;5.302;2023-02-28T02:56:05;7.07;;;2.88;;
43998;SDS011;51319;52.162;5.302;2023-02-28T02:58:37;9.80;;;2.95;;
43998;SDS011;51319;52.162;5.302;2023-02-28T03:01:10;7.90;;;2.97;;
43998;SDS011;51319;52.162;5.302;2023-02-28T03:03:42;9.55;;;3.38;;
43998;SDS011;51319;52.162;5.302;2023-02-28T03:06:11;8.30;;;2.97;;
43998;SDS011;51319;52.162;5.302;2023-02-28T03:08:38;5.15;;;2.78;;
43998;SDS011;51319;52.162;5.302;2023-02-28T03:11:06;5.63;;;2.72;;
43998;SDS011;51319;52.162;5.302;2023-02-28T03:16:49;6.88;;;3.08;;
43998;SDS011;51319;52.162;5.302;2023-02-28T03:28:18;9.93;;;2.97;;
43998;SDS011;51319;52.162;5.302;2023-02-28T03:34:04;6.75;;;3.00;;
43998;SDS011;51319;52.162;5.302;2023-02-28T03:36:38;8.80;;;3.58;;
43998;SDS011;51319;52.162;5.302;2023-02-28T03:42:19;6.43;;;3.20;;
43998;SDS011;51319;52.162;5.302;2023-02-28T03:53:06;5.53;;;3.42;;
43998;SDS011;51319;52.162;5.302;2023-02-28T03:55:39;5.93;;;3.55;;
43998;SDS011;51319;52.162;5.302;2023-02-28T04:01:20;9.20;;;3.83;;
43998;SDS011;51319;52.162;5.302;2023-02-28T04:03:53;8.38;;;3.58;;
43998;SDS011;51319;52.162;5.302;2023-02-28T04:06:21;8.20;;;3.75;;
43998;SDS011;51319;52.162;5.302;2023-02-28T04:08:49;10.73;;;3.55;;
43998;SDS011;51319;52.162;5.302;2023-02-28T04:16:15;7.60;;;3.72;;
43998;SDS011;51319;52.162;5.302;2023-02-28T04:18:59;7.28;;;4.13;;
43998;SDS011;51319;52.162;5.302;2023-02-28T04:21:29;7.82;;;3.83;;
43998;SDS011;51319;52.162;5.302;2023-02-28T04:24:00;11.00;;;4.30;;
43998;SDS011;51319;52.162;5.302;2023-02-28T04:26:31;15.40;;;4.47;;
43998;SDS011;51319;52.162;5.302;2023-02-28T04:29:00;16.23;;;6.03;;
43998;SDS011;51319;52.162;5.302;2023-02-28T04:31:28;13.43;;;4.07;;
43998;SDS011;51319;52.162;5.302;2023-02-28T04:33:56;12.40;;;4.45;;
43998;SDS011;51319;52.162;5.302;2023-02-28T04:36:23;9.63;;;4.63;;
43998;SDS011;51319;52.162;5.302;2023-02-28T04:38:50;5.93;;;3.28;;
43998;SDS011;51319;52.162;5.302;2023-02-28T04:41:17;5.10;;;3.13;;
43998;SDS011;51319;52.162;5.302;2023-02-28T04:43:44;5.53;;;2.88;;
43998;SDS011;51319;52.162;5.302;2023-02-28T04:46:11;5.45;;;2.58;;
43998;SDS011;51319;52.162;5.302;2023-02-28T04:48:38;9.82;;;3.10;;
43998;SDS011;51319;52.162;5.302;2023-02-28T04:51:07;4.15;;;2.83;;
43998;SDS011;51319;52.162;5.302;2023-02-28T04:53:36;5.45;;;2.50;;
43998;SDS011;51319;52.162;5.302;2023-02-28T04:56:05;4.65;;;2.75;;
43998;SDS011;51319;52.162;5.302;2023-02-28T04:58:33;8.88;;;2.97;;
43998;SDS011;51319;52.162;5.302;2023-02-28T05:01:04;5.72;;;2.55;;
43998;SDS011;51319;52.162;5.302;2023-02-28T05:03:39;6.68;;;2.58;;
43998;SDS011;51319;52.162;5.302;2023-02-28T05:06:09;7.47;;;3.13;;
43998;SDS011;51319;52.162;5.302;2023-02-28T05:08:38;5.00;;;2.20;;
43998;SDS011;51319;52.162;5.302;2023-02-28T05:11:06;4.60;;;2.60;;
43998;SDS011;51319;52.162;5.302;2023-02-28T05:13:38;5.65;;;2.92;;
43998;SDS011;51319;52.162;5.302;2023-02-28T05:16:05;3.83;;;2.45;;
43998;SDS011;51319;52.162;5.302;2023-02-28T05:18:32;4.80;;;2.08;;
43998;SDS011;51319;52.162;5.302;2023-02-28T05:20:59;6.35;;;2.38;;
43998;SDS011;51319;52.162;5.302;2023-02-28T05:23:28;4.93;;;2.55;;
43998;SDS011;51319;52.162;5.302;2023-02-28T05:25:55;5.35;;;2.80;;
43998;SDS011;51319;52.162;5.302;2023-02-28T05:28:22;4.28;;;2.60;;
43998;SDS011;51319;52.162;5.302;2023-02-28T05:30:49;4.95;;;2.47;;
43998;SDS011;51319;52.162;5.302;2023-02-28T05:33:15;3.75;;;2.97;;
43998;SDS011;51319;52.162;5.302;2023-02-28T05:35:42;3.33;;;2.38;;
43998;SDS011;51319;52.162;5.302;2023-02-28T05:38:09;8.68;;;2.97;;
43998;SDS011;51319;52.162;5.302;2023-02-28T05:40:37;5.03;;;2.67;;
43998;SDS011;51319;52.162;5.302;2023-02-28T05:43:05;9.60;;;2.88;;
43998;SDS011;51319;52.162;5.302;2023-02-28T05:45:36;3.92;;;2.97;;
43998;SDS011;51319;52.162;5.302;2023-02-28T05:48:03;7.65;;;3.70;;
43998;SDS011;51319;52.162;5.302;2023-02-28T05:50:30;8.18;;;3.28;;
43998;SDS011;51319;52.162;5.302;2023-02-28T05:52:56;5.22;;;3.42;;
43998;SDS011;51319;52.162;5.302;2023-02-28T05:55:23;10.20;;;3.42;;
43998;SDS011;51319;52.162;5.302;2023-02-28T05:57:50;7.35;;;3.30;;
43998;SDS011;51319;52.162;5.302;2023-02-28T06:00:17;6.43;;;3.47;;
43998;SDS011;51319;52.162;5.302;2023-02-28T06:02:44;6.65;;;3.25;;
43998;SDS011;51319;52.162;5.302;2023-02-28T06:05:13;9.35;;;3.72;;
43998;SDS011;51319;52.162;5.302;2023-02-28T06:07:41;7.55;;;3.72;;
43998;SDS011;51319;52.162;5.302;2023-02-28T06:10:08;7.47;;;4.03;;
43998;SDS011;51319;52.162;5.302;2023-02-28T06:12:39;10.27;;;3.72;;
43998;SDS011;51319;52.162;5.302;2023-02-28T06:15:11;6.40;;;3.88;;
43998;SDS011;51319;52.162;5.302;2023-02-28T06:17:40;7.18;;;3.83;;
43998;SDS011;51319;52.162;5.302;2023-02-28T06:20:07;8.48;;;4.10;;
43998;SDS011;51319;52.162;5.302;2023-02-28T06:22:36;7.38;;;4.15;;
43998;SDS011;51319;52.162;5.302;2023-02-28T06:25:03;7.93;;;4.35;;
43998;SDS011;51319;52.162;5.302;2023-02-28T06:27:32;4.25;;;3.78;;
43998;SDS011;51319;52.162;5.302;2023-02-28T06:30:02;6.97;;;4.72;;
43998;SDS011;51319;52.162;5.302;2023-02-28T06:32:29;6.13;;;4.10;;
43998;SDS011;51319;52.162;5.302;2023-02-28T06:34:56;8.15;;;4.45;;
43998;SDS011;51319;52.162;5.302;2023-02-28T06:37:24;6.20;;;4.65;;
43998;SDS011;51319;52.162;5.302;2023-02-28T06:39:54;11.23;;;4.97;;
43998;SDS011;51319;52.162;5.302;2023-02-28T06:42:24;8.02;;;4.75;;
43998;SDS011;51319;52.162;5.302;2023-02-28T06:44:55;9.38;;;4.97;;
43998;SDS011;51319;52.162;5.302;2023-02-28T06:47:22;11.70;;;6.97;;
43998;SDS011;51319;52.162;5.302;2023-02-28T06:49:49;13.50;;;7.68;;
43998;SDS011;51319;52.162;5.302;2023-02-28T06:52:16;11.18;;;6.55;;
43998;SDS011;51319;52.162;5.302;2023-02-28T06:54:43;15.07;;;7.40;;
43998;SDS011;51319;52.162;5.302;2023-02-28T06:57:10;45.92;;;24.10;;
43998;SDS011;51319;52.162;5.302;2023-02-28T06:59:36;29.73;;;16.52;;
43998;SDS011;51319;52.162;5.302;2023-02-28T07:02:03;23.67;;;14.38;;
43998;SDS011;51319;52.162;5.302;2023-02-28T07:04:32;21.63;;;13.20;;
43998;SDS011;51319;52.162;5.302;2023-02-28T07:06:59;16.85;;;11.25;;
43998;SDS011;51319;52.162;5.302;2023-02-28T07:09:26;12.20;;;8.30;;
43998;SDS011;51319;52.162;5.302;2023-02-28T07:11:56;11.45;;;8.30;;
43998;SDS011;51319;52.162;5.302;2023-02-28T07:14:23;33.50;;;17.48;;
43998;SDS011;51319;52.162;5.302;2023-02-28T07:16:49;26.67;;;15.80;;
43998;SDS011;51319;52.162;5.302;2023-02-28T07:19:16;26.98;;;16.17;;
43998;SDS011;51319;52.162;5.302;2023-02-28T07:21:43;31.65;;;17.23;;
43998;SDS011;51319;52.162;5.302;2023-02-28T07:24:11;27.70;;;16.08;;
43998;SDS011;51319;52.162;5.302;2023-02-28T07:26:38;11.27;;;8.02;;
43998;SDS011;51319;52.162;5.302;2023-02-28T07:29:05;10.35;;;5.40;;
43998;SDS011;51319;52.162;5.302;2023-02-28T07:31:32;9.32;;;5.55;;
43998;SDS011;51319;52.162;5.302;2023-02-28T07:33:59;9.05;;;5.22;;
43998;SDS011;51319;52.162;5.302;2023-02-28T07:36:26;13.23;;;6.03;;
43998;SDS011;51319;52.162;5.302;2023-02-28T07:38:53;10.60;;;5.75;;
43998;SDS011;51319;52.162;5.302;2023-02-28T07:41:20;11.68;;;6.90;;
43998;SDS011;51319;52.162;5.302;2023-02-28T07:43:48;12.02;;;6.50;;
43998;SDS011;51319;52.162;5.302;2023-02-28T07:46:16;14.88;;;7.35;;
43998;SDS011;51319;52.162;5.302;2023-02-28T07:48:43;18.85;;;7.32;;
43998;SDS011;51319;52.162;5.302;2023-02-28T07:51:11;11.88;;;7.65;;
43998;SDS011;51319;52.162;5.302;2023-02-28T07:53:38;10.30;;;6.85;;
43998;SDS011;51319;52.162;5.302;2023-02-28T07:56:05;12.75;;;7.28;;
43998;SDS011;51319;52.162;5.302;2023-02-28T07:58:33;13.88;;;7.10;;
43998;SDS011;51319;52.162;5.302;2023-02-28T08:01:07;13.52;;;7.00;;
43998;SDS011;51319;52.162;5.302;2023-02-28T08:03:35;13.27;;;7.05;;
43998;SDS011;51319;52.162;5.302;2023-02-28T08:06:03;12.45;;;6.40;;
43998;SDS011;51319;52.162;5.302;2023-02-28T08:08:31;8.35;;;6.28;;
43998;SDS011;51319;52.162;5.302;2023-02-28T08:10:59;11.07;;;5.97;;
43998;SDS011;51319;52.162;5.302;2023-02-28T08:13:27;9.40;;;6.05;;
43998;SDS011;51319;52.162;5.302;2023-02-28T08:15:55;28.30;;;14.07;;
43998;SDS011;51319;52.162;5.302;2023-02-28T08:18:23;11.05;;;6.57;;
43998;SDS011;51319;52.162;5.302;2023-02-28T08:20:50;9.05;;;5.97;;
43998;SDS011;51319;52.162;5.302;2023-02-28T08:23:17;11.80;;;5.88;;
43998;SDS011;51319;52.162;5.302;2023-02-28T08:25:44;10.90;;;5.95;;
43998;SDS011;51319;52.162;5.302;2023-02-28T08:28:18;8.38;;;5.30;;
43998;SDS011;51319;52.162;5.302;2023-02-28T08:30:45;10.05;;;5.93;;
43998;SDS011;51319;52.162;5.302;2023-02-28T08:33:12;12.55;;;6.20;;
43998;SDS011;51319;52.162;5.302;2023-02-28T08:35:39;11.52;;;6.78;;
43998;SDS011;51319;52.162;5.302;2023-02-28T08:38:06;22.60;;;11.25;;
43998;SDS011;51319;52.162;5.302;2023-02-28T08:40:32;12.13;;;6.93;;
43998;SDS011;51319;52.162;5.302;2023-02-28T08:42:59;8.38;;;6.43;;
43998;SDS011;51319;52.162;5.302;2023-02-28T08:45:26;13.65;;;7.82;;
43998;SDS011;51319;52.162;5.302;2023-02-28T08:47:56;17.15;;;7.50;;
43998;SDS011;51319;52.162;5.302;2023-02-28T08:50:23;13.43;;;6.95;;
43998;SDS011;51319;52.162;5.302;2023-02-28T08:52:50;13.00;;;6.13;;
43998;SDS011;51319;52.162;5.302;2023-02-28T08:55:17;10.55;;;6.28;;
43998;SDS011;51319;52.162;5.302;2023-02-28T08:57:44;10.95;;;6.25;;
43998;SDS011;51319;52.162;5.302;2023-02-28T09:00:11;13.57;;;5.43;;
43998;SDS011;51319;52.162;5.302;2023-02-28T09:02:40;10.57;;;4.50;;
43998;SDS011;51319;52.162;5.302;2023-02-28T09:05:09;10.18;;;4.07;;
43998;SDS011;51319;52.162;5.302;2023-02-28T09:07:36;5.40;;;3.03;;
43998;SDS011;51319;52.162;5.302;2023-02-28T09:10:03;4.75;;;3.17;;
43998;SDS011;51319;52.162;5.302;2023-02-28T09:12:32;5.18;;;3.30;;
43998;SDS011;51319;52.162;5.302;2023-02-28T09:15:01;7.27;;;3.53;;
43998;SDS011;51319;52.162;5.302;2023-02-28T09:17:28;7.35;;;3.53;;
43998;SDS011;51319;52.162;5.302;2023-02-28T09:19:56;7.68;;;4.72;;
43998;SDS011;51319;52.162;5.302;2023-02-28T09:22:23;6.43;;;2.83;;
43998;SDS011;51319;52.162;5.302;2023-02-28T09:24:50;9.60;;;4.38;;
43998;SDS011;51319;52.162;5.302;2023-02-28T09:27:18;9.55;;;3.30;;
43998;SDS011;51319;52.162;5.302;2023-02-28T09:29:45;5.72;;;3.47;;
43998;SDS011;51319;52.162;5.302;2023-02-28T09:32:12;4.10;;;2.80;;
43998;SDS011;51319;52.162;5.302;2023-02-28T09:34:39;8.55;;;3.00;;
43998;SDS011;51319;52.162;5.302;2023-02-28T09:37:06;7.28;;;2.40;;
43998;SDS011;51319;52.162;5.302;2023-02-28T09:39:34;5.82;;;2.25;;
43998;SDS011;51319;52.162;5.302;2023-02-28T09:42:01;7.05;;;3.35;;
43998;SDS011;51319;52.162;5.302;2023-02-28T09:44:36;2.83;;;2.00;;
43998;SDS011;51319;52.162;5.302;2023-02-28T09:49:53;3.67;;;2.05;;
43998;SDS011;51319;52.162;5.302;2023-02-28T09:52:24;6.85;;;1.90;;
43998;SDS011;51319;52.162;5.302;2023-02-28T09:57:41;4.53;;;3.25;;
43998;SDS011;51319;52.162;5.302;2023-02-28T10:02:46;3.22;;;1.95;;
43998;SDS011;51319;52.162;5.302;2023-02-28T10:05:33;2.22;;;1.48;;
43998;SDS011;51319;52.162;5.302;2023-02-28T10:10:41;2.22;;;1.05;;
43998;SDS011;51319;52.162;5.302;2023-02-28T10:13:14;10.00;;;5.47;;
43998;SDS011;51319;52.162;5.302;2023-02-28T10:15:46;3.50;;;1.30;;
43998;SDS011;51319;52.162;5.302;2023-02-28T10:20:47;2.25;;;1.17;;
43998;SDS011;51319;52.162;5.302;2023-02-28T10:23:20;2.53;;;1.42;;
43998;SDS011;51319;52.162;5.302;2023-02-28T10:26:10;1.70;;;1.40;;
43998;SDS011;51319;52.162;5.302;2023-02-28T10:28:39;1.80;;;1.05;;
43998;SDS011;51319;52.162;5.302;2023-02-28T10:31:08;2.00;;;1.50;;
43998;SDS011;51319;52.162;5.302;2023-02-28T10:33:43;3.22;;;1.77;;
43998;SDS011;51319;52.162;5.302;2023-02-28T10:36:14;2.42;;;1.58;;
43998;SDS011;51319;52.162;5.302;2023-02-28T10:38:44;1.58;;;1.30;;
43998;SDS011;51319;52.162;5.302;2023-02-28T10:41:14;3.10;;;1.40;;
43998;SDS011;51319;52.162;5.302;2023-02-28T10:43:42;4.18;;;1.77;;
43998;SDS011;51319;52.162;5.302;2023-02-28T10:46:13;1.85;;;1.45;;
43998;SDS011;51319;52.162;5.302;2023-02-28T10:49:00;1.77;;;1.52;;
43998;SDS011;51319;52.162;5.302;2023-02-28T10:51:39;1.60;;;1.50;;
43998;SDS011;51319;52.162;5.302;2023-02-28T10:54:18;3.58;;;1.20;;
43998;SDS011;51319;52.162;5.302;2023-02-28T10:57:05;4.35;;;1.30;;
43998;SDS011;51319;52.162;5.302;2023-02-28T10:59:33;2.25;;;1.55;;
43998;SDS011;51319;52.162;5.302;2023-02-28T11:02:00;2.10;;;1.30;;
43998;SDS011;51319;52.162;5.302;2023-02-28T11:07:23;3.47;;;1.20;;
43998;SDS011;51319;52.162;5.302;2023-02-28T11:09:53;2.05;;;1.15;;
43998;SDS011;51319;52.162;5.302;2023-02-28T11:12:23;1.40;;;1.30;;
43998;SDS011;51319;52.162;5.302;2023-02-28T11:15:21;2.63;;;1.30;;
43998;SDS011;51319;52.162;5.302;2023-02-28T11:17:57;2.10;;;1.25;;
43998;SDS011;51319;52.162;5.302;2023-02-28T11:20:34;3.40;;;1.15;;
43998;SDS011;51319;52.162;5.302;2023-02-28T11:23:02;3.80;;;1.30;;
43998;SDS011;51319;52.162;5.302;2023-02-28T11:25:32;1.58;;;1.00;;
43998;SDS011;51319;52.162;5.302;2023-02-28T11:28:02;1.55;;;0.95;;
43998;SDS011;51319;52.162;5.302;2023-02-28T11:30:59;2.88;;;1.30;;
43998;SDS011;51319;52.162;5.302;2023-02-28T11:33:30;3.22;;;1.00;;
43998;SDS011;51319;52.162;5.302;2023-02-28T11:36:10;5.03;;;1.17;;
43998;SDS011;51319;52.162;5.302;2023-02-28T11:38:46;2.08;;;1.10;;
43998;SDS011;51319;52.162;5.302;2023-02-28T12:03:06;1.73;;;1.33;;
43998;SDS011;51319;52.162;5.302;2023-02-28T12:08:43;2.03;;;1.13;;
43998;SDS011;51319;52.162;5.302;2023-02-28T12:27:25;2.33;;;2.13;;
43998;SDS011;51319;52.162;5.302;2023-02-28T12:32:43;1.13;;;1.02;;
43998;SDS011;51319;52.162;5.302;2023-02-28T12:35:19;2.35;;;1.33;;
43998;SDS011;51319;52.162;5.302;2023-02-28T12:40:56;1.50;;;0.90;;
43998;SDS011;51319;52.162;5.302;2023-02-28T12:43:36;1.45;;;0.98;;
43998;SDS011;51319;52.162;5.302;2023-02-28T12:46:11;4.82;;;3.72;;
43998;SDS011;51319;52.162;5.302;2023-02-28T12:48:56;3.67;;;1.10;;
43998;SDS011;51319;52.162;5.302;2023-02-28T12:51:25;2.33;;;1.10;;
43998;SDS011;51319;52.162;5.302;2023-02-28T12:59:49;3.80;;;1.23;;
43998;SDS011;51319;52.162;5.302;2023-02-28T13:06:10;4.57;;;1.30;;
43998;SDS011;51319;52.162;5.302;2023-02-28T13:08:48;2.85;;;1.30;;
43998;SDS011;51319;52.162;5.302;2023-02-28T13:14:19;1.73;;;1.10;;
43998;SDS011;51319;52.162;5.302;2023-02-28T13:19:46;2.13;;;1.38;;
43998;SDS011;51319;52.162;5.302;2023-02-28T13:24:52;2.38;;;1.15;;
43998;SDS011;51319;52.162;5.302;2023-02-28T13:27:38;2.33;;;1.42;;
43998;SDS011;51319;52.162;5.302;2023-02-28T13:38:53;3.17;;;1.33;;
43998;SDS011;51319;52.162;5.302;2023-02-28T13:44:00;2.35;;;1.90;;
43998;SDS011;51319;52.162;5.302;2023-02-28T13:51:49;1.30;;;1.20;;
43998;SDS011;51319;52.162;5.302;2023-02-28T14:05:19;9.75;;;5.70;;
43998;SDS011;51319;52.162;5.302;2023-02-28T14:07:52;4.90;;;2.67;;
43998;SDS011;51319;52.162;5.302;2023-02-28T14:13:41;2.38;;;1.55;;
43998;SDS011;51319;52.162;5.302;2023-02-28T14:16:14;2.55;;;1.45;;
43998;SDS011;51319;52.162;5.302;2023-02-28T14:38:27;1.67;;;1.15;;
43998;SDS011;51319;52.162;5.302;2023-02-28T14:41:00;2.40;;;1.50;;
43998;SDS011;51319;52.162;5.302;2023-02-28T14:43:33;2.08;;;1.30;;
43998;SDS011;51319;52.162;5.302;2023-02-28T14:46:02;3.20;;;1.23;;
43998;SDS011;51319;52.162;5.302;2023-02-28T14:48:31;2.95;;;1.65;;
43998;SDS011;51319;52.162;5.302;2023-02-28T14:51:00;1.45;;;1.35;;
43998;SDS011;51319;52.162;5.302;2023-02-28T14:53:34;1.70;;;1.60;;
43998;SDS011;51319;52.162;5.302;2023-02-28T14:56:03;3.55;;;1.88;;
43998;SDS011;51319;52.162;5.302;2023-02-28T14:58:32;2.80;;;1.58;;
43998;SDS011;51319;52.162;5.302;2023-02-28T15:01:01;4.20;;;2.75;;
43998;SDS011;51319;52.162;5.302;2023-02-28T15:06:05;3.65;;;3.03;;
43998;SDS011;51319;52.162;5.302;2023-02-28T15:08:38;2.72;;;1.65;;
43998;SDS011;51319;52.162;5.302;2023-02-28T15:11:07;4.60;;;1.58;;
43998;SDS011;51319;52.162;5.302;2023-02-28T15:16:23;2.38;;;1.80;;
43998;SDS011;51319;52.162;5.302;2023-02-28T15:19:13;2.03;;;1.75;;
43998;SDS011;51319;52.162;5.302;2023-02-28T15:21:59;3.17;;;1.70;;
43998;SDS011;51319;52.162;5.302;2023-02-28T15:24:37;6.15;;;2.33;;
43998;SDS011;51319;52.162;5.302;2023-02-28T15:27:16;3.55;;;2.55;;
43998;SDS011;51319;52.162;5.302;2023-02-28T15:30:05;6.97;;;4.30;;
43998;SDS011;51319;52.162;5.302;2023-02-28T15:32:35;3.05;;;2.10;;
43998;SDS011;51319;52.162;5.302;2023-02-28T15:37:56;3.53;;;1.92;;
43998;SDS011;51319;52.162;5.302;2023-02-28T15:45:36;3.28;;;1.83;;
43998;SDS011;51319;52.162;5.302;2023-02-28T15:48:17;2.88;;;1.77;;
43998;SDS011;51319;52.162;5.302;2023-02-28T15:50:49;3.05;;;1.70;;
43998;SDS011;51319;52.162;5.302;2023-02-28T15:53:25;2.60;;;1.80;;
43998;SDS011;51319;52.162;5.302;2023-02-28T15:56:01;7.72;;;1.88;;
43998;SDS011;51319;52.162;5.302;2023-02-28T15:58:30;6.90;;;3.70;;
43998;SDS011;51319;52.162;5.302;2023-02-28T16:01:03;2.75;;;2.00;;
43998;SDS011;51319;52.162;5.302;2023-02-28T16:03:37;1.80;;;1.60;;
43998;SDS011;51319;52.162;5.302;2023-02-28T16:08:43;4.10;;;2.40;;
43998;SDS011;51319;52.162;5.302;2023-02-28T16:11:11;3.75;;;2.70;;
43998;SDS011;51319;52.162;5.302;2023-02-28T16:13:38;2.85;;;1.83;;
43998;SDS011;51319;52.162;5.302;2023-02-28T16:16:05;3.35;;;1.60;;
43998;SDS011;51319;52.162;5.302;2023-02-28T16:18:32;2.85;;;1.70;;
43998;SDS011;51319;52.162;5.302;2023-02-28T16:21:29;2.10;;;1.90;;
43998;SDS011;51319;52.162;5.302;2023-02-28T16:23:57;2.72;;;2.10;;
43998;SDS011;51319;52.162;5.302;2023-02-28T16:26:24;3.05;;;2.15;;
43998;SDS011;51319;52.162;5.302;2023-02-28T16:28:53;2.22;;;1.45;;
43998;SDS011;51319;52.162;5.302;2023-02-28T16:31:21;3.42;;;2.00;;
43998;SDS011;51319;52.162;5.302;2023-02-28T16:33:48;3.35;;;1.90;;
43998;SDS011;51319;52.162;5.302;2023-02-28T16:36:15;6.60;;;1.80;;
43998;SDS011;51319;52.162;5.302;2023-02-28T16:38:45;4.18;;;3.28;;
43998;SDS011;51319;52.162;5.302;2023-02-28T16:41:12;2.58;;;1.70;;
43998;SDS011;51319;52.162;5.302;2023-02-28T16:43:46;7.97;;;3.88;;
43998;SDS011;51319;52.162;5.302;2023-02-28T16:46:15;6.43;;;3.35;;
43998;SDS011;51319;52.162;5.302;2023-02-28T16:48:44;6.28;;;3.15;;
43998;SDS011;51319;52.162;5.302;2023-02-28T16:51:15;5.28;;;2.72;;
43998;SDS011;51319;52.162;5.302;2023-02-28T16:53:42;4.47;;;3.03;;
43998;SDS011;51319;52.162;5.302;2023-02-28T16:56:15;7.30;;;3.55;;
43998;SDS011;51319;52.162;5.302;2023-02-28T16:58:44;5.18;;;2.78;;
43998;SDS011;51319;52.162;5.302;2023-02-28T17:01:12;5.18;;;3.45;;
43998;SDS011;51319;52.162;5.302;2023-02-28T17:03:39;10.80;;;4.63;;
43998;SDS011;51319;52.162;5.302;2023-02-28T17:06:14;10.23;;;5.72;;
43998;SDS011;51319;52.162;5.302;2023-02-28T17:08:48;8.35;;;4.13;;
43998;SDS011;51319;52.162;5.302;2023-02-28T17:11:16;6.78;;;4.97;;
43998;SDS011;51319;52.162;5.302;2023-02-28T17:13:43;4.82;;;3.55;;
43998;SDS011;51319;52.162;5.302;2023-02-28T17:16:29;3.88;;;2.85;;
43998;SDS011;51319;52.162;5.302;2023-02-28T17:19:00;9.50;;;4.68;;
43998;SDS011;51319;52.162;5.302;2023-02-28T17:21:29;6.95;;;4.00;;
43998;SDS011;51319;52.162;5.302;2023-02-28T17:23:57;7.20;;;4.40;;
43998;SDS011;51319;52.162;5.302;2023-02-28T17:26:24;20.83;;;9.75;;
43998;SDS011;51319;52.162;5.302;2023-02-28T17:28:52;20.75;;;9.25;;
43998;SDS011;51319;52.162;5.302;2023-02-28T17:31:22;8.95;;;5.57;;
43998;SDS011;51319;52.162;5.302;2023-02-28T17:33:51;8.70;;;5.10;;
43998;SDS011;51319;52.162;5.302;2023-02-28T17:36:23;15.27;;;6.82;;
43998;SDS011;51319;52.162;5.302;2023-02-28T17:38:54;18.92;;;10.20;;
43998;SDS011;51319;52.162;5.302;2023-02-28T17:41:22;21.98;;;11.48;;
43998;SDS011;51319;52.162;5.302;2023-02-28T17:43:49;30.67;;;13.57;;
43998;SDS011;51319;52.162;5.302;2023-02-28T17:46:17;22.30;;;10.40;;
43998;SDS011;51319;52.162;5.302;2023-02-28T17:48:47;12.55;;;8.43;;
43998;SDS011;51319;52.162;5.302;2023-02-28T17:51:15;16.42;;;8.13;;
43998;SDS011;51319;52.162;5.302;2023-02-28T17:53:43;14.88;;;7.30;;
43998;SDS011;51319;52.162;5.302;2023-02-28T17:56:11;17.10;;;8.13;;
43998;SDS011;51319;52.162;5.302;2023-02-28T17:58:40;12.02;;;8.10;;
43998;SDS011;51319;52.162;5.302;2023-02-28T18:01:07;22.48;;;6.75;;
43998;SDS011;51319;52.162;5.302;2023-02-28T18:03:35;12.50;;;7.20;;
43998;SDS011;51319;52.162;5.302;2023-02-28T18:06:02;11.70;;;5.63;;
43998;SDS011;51319;52.162;5.302;2023-02-28T18:08:30;8.13;;;5.15;;
43998;SDS011;51319;52.162;5.302;2023-02-28T18:11:01;8.70;;;5.03;;
43998;SDS011;51319;52.162;5.302;2023-02-28T18:13:29;9.20;;;3.63;;
43998;SDS011;51319;52.162;5.302;2023-02-28T18:15:55;6.15;;;3.33;;
43998;SDS011;51319;52.162;5.302;2023-02-28T18:18:22;6.85;;;3.85;;
43998;SDS011;51319;52.162;5.302;2023-02-28T18:20:49;7.20;;;4.22;;
43998;SDS011;51319;52.162;5.302;2023-02-28T18:23:18;6.32;;;3.35;;
43998;SDS011;51319;52.162;5.302;2023-02-28T18:25:49;8.10;;;4.50;;
43998;SDS011;51319;52.162;5.302;2023-02-28T18:28:16;10.63;;;5.28;;